createdAt,value
2022-08-03T00:00:26.420Z,3.50
2022-08-03T00:02:53.876Z,4.13
2022-08-03T00:05:21.071Z,3.65
2022-08-03T00:07:49.373Z,3.60
2022-08-03T00:10:16.734Z,3.72
2022-08-03T00:12:43.863Z,3.72
2022-08-03T00:15:15.162Z,4.28
2022-08-03T00:17:53.080Z,3.60
2022-08-03T00:20:24.402Z,4.13
2022-08-03T00:22:51.682Z,4.68
2022-08-03T00:25:19.258Z,3.95
2022-08-03T00:27:46.207Z,3.60
2022-08-03T00:30:16.985Z,4.00
2022-08-03T00:32:45.307Z,4.05
2022-08-03T00:35:27.350Z,4.47
2022-08-03T00:38:00.073Z,3.95
2022-08-03T00:40:27.258Z,4.88
2022-08-03T00:43:01.628Z,4.30
2022-08-03T00:45:30.574Z,3.97
2022-08-03T00:47:57.840Z,4.07
2022-08-03T00:50:25.569Z,4.28
2022-08-03T00:52:53.586Z,4.47
2022-08-03T00:55:20.710Z,4.05
2022-08-03T00:57:47.785Z,4.30
2022-08-03T01:00:23.380Z,4.22
2022-08-03T01:02:50.568Z,3.97
2022-08-03T01:05:17.587Z,4.05
2022-08-03T01:08:04.338Z,3.90
2022-08-03T01:10:42.242Z,3.80
2022-08-03T01:14:01.861Z,4.68
2022-08-03T01:16:40.146Z,4.90
2022-08-03T01:19:20.391Z,4.65
2022-08-03T01:22:09.030Z,4.75
2022-08-03T01:24:50.232Z,5.00
2022-08-03T01:27:22.119Z,5.20
2022-08-03T01:30:08.409Z,5.43
2022-08-03T01:33:01.849Z,5.40
2022-08-03T01:35:52.734Z,5.78
2022-08-03T01:38:43.096Z,6.30
2022-08-03T01:41:13.827Z,6.20
2022-08-03T01:44:28.358Z,6.78
2022-08-03T01:46:30.623Z,7.20
2022-08-03T01:48:57.770Z,7.95
2022-08-03T01:51:25.128Z,7.50
2022-08-03T01:54:12.037Z,8.02
2022-08-03T01:56:40.964Z,7.70
2022-08-03T01:59:07.962Z,8.30
2022-08-03T02:02:19.534Z,7.90
2022-08-03T02:04:22.269Z,8.48
2022-08-03T02:07:00.623Z,8.50
2022-08-03T02:09:29.897Z,8.77
2022-08-03T02:11:56.807Z,8.52
2022-08-03T02:14:24.134Z,9.18
2022-08-03T02:16:51.089Z,9.23
2022-08-03T02:19:17.958Z,9.85
2022-08-03T02:21:56.927Z,8.88
2022-08-03T02:24:28.853Z,9.57
2022-08-03T02:26:56.310Z,8.52
2022-08-03T02:29:40.070Z,9.20
2022-08-03T02:32:11.009Z,9.52
2022-08-03T02:34:37.994Z,8.68
2022-08-03T02:37:05.167Z,9.07
2022-08-03T02:39:32.195Z,9.07
2022-08-03T02:42:02.488Z,9.05
2022-08-03T02:44:32.594Z,8.68
2022-08-03T02:47:02.647Z,8.27
2022-08-03T02:49:40.510Z,8.15
2022-08-03T02:52:16.700Z,8.63
2022-08-03T02:54:44.738Z,8.48
2022-08-03T02:57:11.688Z,7.35
2022-08-03T02:59:38.605Z,7.22
2022-08-03T03:02:05.675Z,7.10
2022-08-03T03:04:33.298Z,7.22
2022-08-03T03:07:01.796Z,7.20
2022-08-03T03:09:41.598Z,7.03
2022-08-03T03:12:10.683Z,6.45
2022-08-03T03:14:38.500Z,6.32
2022-08-03T03:17:08.365Z,6.90
2022-08-03T03:19:35.349Z,6.00
2022-08-03T03:22:02.585Z,6.32
2022-08-03T03:24:30.058Z,6.78
2022-08-03T03:26:57.289Z,7.10
2022-08-03T03:29:24.190Z,7.43
2022-08-03T03:31:51.094Z,6.60
2022-08-03T03:34:18.563Z,7.47
2022-08-03T03:36:45.675Z,7.40
2022-08-03T03:39:16.004Z,7.88
2022-08-03T03:41:43.404Z,7.88
2022-08-03T03:44:10.405Z,7.93
2022-08-03T03:46:38.433Z,7.85
2022-08-03T03:49:08.422Z,7.13
2022-08-03T03:51:35.577Z,7.32
2022-08-03T03:54:04.627Z,7.70
2022-08-03T03:56:31.783Z,7.60
2022-08-03T03:58:58.884Z,7.68
2022-08-03T04:01:26.332Z,7.55
2022-08-03T04:03:53.399Z,7.15
2022-08-03T04:06:38.914Z,7.60
2022-08-03T04:09:24.222Z,7.40
2022-08-03T04:11:55.083Z,7.43
2022-08-03T04:14:27.153Z,6.75
2022-08-03T04:16:56.987Z,6.82
2022-08-03T04:19:37.960Z,6.30
2022-08-03T04:22:07.439Z,7.05
2022-08-03T04:24:35.739Z,6.85
2022-08-03T04:27:04.389Z,6.50
2022-08-03T04:29:31.690Z,6.85
2022-08-03T04:31:58.763Z,6.13
2022-08-03T04:34:25.830Z,6.65
2022-08-03T04:36:54.881Z,6.00
2022-08-03T04:39:26.683Z,6.80
2022-08-03T04:42:06.955Z,6.68
2022-08-03T04:47:06.357Z,6.68
2022-08-03T04:49:33.326Z,6.90
2022-08-03T04:52:00.329Z,6.75
2022-08-03T04:54:27.238Z,6.63
2022-08-03T04:56:54.127Z,7.03
2022-08-03T04:59:21.245Z,6.35
2022-08-03T05:01:48.351Z,6.00
2022-08-03T05:04:15.313Z,7.05
2022-08-03T05:06:48.233Z,7.72
2022-08-03T05:09:15.231Z,7.43
2022-08-03T05:12:02.163Z,7.35
2022-08-03T05:14:29.317Z,8.35
2022-08-03T05:16:56.210Z,8.27
2022-08-03T05:19:23.180Z,8.35
2022-08-03T05:21:52.222Z,7.70
2022-08-03T05:24:19.964Z,7.63
2022-08-03T05:26:46.873Z,8.63
2022-08-03T05:29:13.776Z,8.45
2022-08-03T05:31:40.720Z,7.95
2022-08-03T05:34:08.193Z,7.30
2022-08-03T05:36:35.263Z,7.82
2022-08-03T05:39:02.884Z,7.18
2022-08-03T05:41:36.912Z,6.88
2022-08-03T05:44:04.695Z,6.60
2022-08-03T05:46:31.661Z,7.20
2022-08-03T05:48:58.697Z,7.90
2022-08-03T05:51:25.732Z,6.78
2022-08-03T05:53:52.826Z,6.70
2022-08-03T05:56:23.675Z,7.07
2022-08-03T05:58:51.777Z,7.38
2022-08-03T06:01:19.069Z,6.47
2022-08-03T06:03:46.449Z,6.15
2022-08-03T06:06:13.411Z,6.30
2022-08-03T06:08:41.273Z,6.50
2022-08-03T06:11:08.311Z,6.47
2022-08-03T06:13:35.375Z,6.70
2022-08-03T06:16:02.404Z,6.53
2022-08-03T06:18:29.296Z,5.97
2022-08-03T06:20:56.589Z,6.10
2022-08-03T06:23:52.364Z,5.47
2022-08-03T06:26:10.620Z,5.95
2022-08-03T06:28:52.978Z,5.50
2022-08-03T06:31:32.838Z,5.30
2022-08-03T06:34:32.989Z,4.50
2022-08-03T06:36:52.411Z,6.63
2022-08-03T06:39:19.866Z,4.40
2022-08-03T06:41:46.927Z,4.00
2022-08-03T06:44:14.004Z,4.43
2022-08-03T06:46:41.059Z,4.32
2022-08-03T06:49:08.322Z,3.80
2022-08-03T06:52:04.476Z,4.05
2022-08-03T06:54:26.391Z,3.80
2022-08-03T06:56:54.555Z,3.67
2022-08-03T07:00:09.847Z,3.30
2022-08-03T07:02:09.828Z,3.40
2022-08-03T07:04:37.361Z,3.28
2022-08-03T07:07:04.286Z,3.20
2022-08-03T07:09:31.178Z,3.10
2022-08-03T07:11:58.841Z,3.22
2022-08-03T07:14:25.858Z,3.15
2022-08-03T07:16:52.838Z,3.05
2022-08-03T07:19:19.720Z,3.03
2022-08-03T07:21:47.299Z,2.97
2022-08-03T07:24:14.509Z,2.70
2022-08-03T07:26:41.714Z,2.63
2022-08-03T07:29:14.915Z,3.30
2022-08-03T07:31:42.430Z,3.35
2022-08-03T07:34:09.399Z,2.58
2022-08-03T07:36:36.364Z,3.47
2022-08-03T07:39:15.828Z,3.38
2022-08-03T07:41:45.438Z,3.15
2022-08-03T07:44:12.490Z,3.10
2022-08-03T07:46:39.578Z,3.45
2022-08-03T07:49:06.527Z,3.58
2022-08-03T07:51:33.621Z,3.33
2022-08-03T07:54:01.032Z,3.20
2022-08-03T07:56:28.523Z,3.25
2022-08-03T07:58:55.695Z,3.28
2022-08-03T08:01:23.190Z,3.15
2022-08-03T08:03:52.922Z,2.83
2022-08-03T08:06:21.357Z,3.05
2022-08-03T08:08:48.371Z,3.45
2022-08-03T08:11:15.371Z,2.95
2022-08-03T08:13:42.498Z,2.60
2022-08-03T08:16:09.387Z,2.70
2022-08-03T08:18:36.352Z,2.58
2022-08-03T08:21:03.536Z,2.17
2022-08-03T08:23:42.584Z,2.17
2022-08-03T08:26:10.655Z,2.20
2022-08-03T08:28:37.577Z,2.00
2022-08-03T08:31:04.561Z,1.90
2022-08-03T08:36:18.601Z,2.03
2022-08-03T08:38:45.852Z,1.90
2022-08-03T08:41:13.636Z,1.80
2022-08-03T08:43:41.110Z,1.77
2022-08-03T08:46:08.664Z,1.70
2022-08-03T08:48:36.553Z,1.90
2022-08-03T08:51:03.497Z,1.60
2022-08-03T08:53:32.496Z,1.70
2022-08-03T08:56:01.308Z,1.60
2022-08-03T08:58:37.218Z,1.40
2022-08-03T09:01:06.202Z,1.58
2022-08-03T09:03:36.309Z,1.40
2022-08-03T09:06:03.577Z,1.70
2022-08-03T09:08:31.302Z,1.33
2022-08-03T09:10:58.526Z,1.27
2022-08-03T09:13:25.681Z,1.30
2022-08-03T09:16:15.372Z,1.52
2022-08-03T09:18:43.555Z,1.30
2022-08-03T09:21:32.868Z,1.52
2022-08-03T09:24:03.384Z,1.42
2022-08-03T09:29:09.651Z,1.52
2022-08-03T09:31:43.467Z,1.67
2022-08-03T09:34:12.504Z,2.00
2022-08-03T09:36:44.032Z,1.70
2022-08-03T09:39:14.742Z,1.55
2022-08-03T09:41:45.908Z,1.60
2022-08-03T09:46:56.788Z,1.83
2022-08-03T09:49:24.543Z,1.67
2022-08-03T09:52:33.607Z,1.52
2022-08-03T09:54:38.848Z,1.90
2022-08-03T09:57:05.820Z,1.63
2022-08-03T09:59:33.309Z,1.60
2022-08-03T10:02:00.551Z,1.52
2022-08-03T10:04:27.589Z,1.60
2022-08-03T10:07:06.476Z,1.85
2022-08-03T10:09:33.520Z,1.60
2022-08-03T10:12:26.916Z,1.60
2022-08-03T10:14:54.348Z,1.60
2022-08-03T10:17:24.393Z,1.55
2022-08-03T10:19:51.312Z,1.40
2022-08-03T10:22:26.573Z,1.88
2022-08-03T10:24:59.483Z,1.63
2022-08-03T10:27:27.963Z,1.60
2022-08-03T10:29:56.536Z,1.60
2022-08-03T10:32:29.128Z,1.63
2022-08-03T10:35:04.028Z,1.75
2022-08-03T10:37:56.485Z,1.63
2022-08-03T10:40:47.549Z,1.40
2022-08-03T10:43:23.133Z,1.58
2022-08-03T10:45:50.225Z,1.60
2022-08-03T10:48:17.454Z,1.52
2022-08-03T10:50:44.648Z,1.42
2022-08-03T10:53:11.712Z,1.85
2022-08-03T10:56:05.636Z,1.40
2022-08-03T10:58:53.218Z,1.45
2022-08-03T11:02:00.104Z,1.40
2022-08-03T11:04:29.806Z,1.30
2022-08-03T11:07:19.342Z,1.48
2022-08-03T11:09:54.571Z,1.50
2022-08-03T11:12:31.215Z,1.60
2022-08-03T11:15:07.279Z,1.73
2022-08-03T11:17:46.925Z,1.60
2022-08-03T11:20:48.835Z,1.70
2022-08-03T11:23:16.868Z,1.70
2022-08-03T11:26:10.004Z,1.60
2022-08-03T11:28:38.889Z,1.77
2022-08-03T11:34:15.154Z,1.83
2022-08-03T11:37:23.159Z,1.98
2022-08-03T11:39:53.069Z,1.90
2022-08-03T11:42:23.299Z,1.80
2022-08-03T11:45:00.141Z,2.33
2022-08-03T11:47:28.363Z,1.92
2022-08-03T11:49:57.515Z,1.75
2022-08-03T11:52:27.210Z,1.80
2022-08-03T11:54:56.860Z,1.50
2022-08-03T11:59:17.241Z,1.58
2022-08-03T12:00:25.999Z,1.70
2022-08-03T12:03:10.576Z,1.65
2022-08-03T12:05:51.113Z,1.50
2022-08-03T12:08:39.940Z,1.50
2022-08-03T12:11:09.082Z,1.42
2022-08-03T12:14:05.736Z,1.50
2022-08-03T12:16:30.743Z,1.50
2022-08-03T12:19:04.865Z,1.60
2022-08-03T12:21:31.995Z,1.70
2022-08-03T12:24:00.588Z,1.60
2022-08-03T12:26:28.436Z,1.80
2022-08-03T12:28:55.504Z,1.80
2022-08-03T12:31:22.756Z,1.50
2022-08-03T12:34:03.353Z,1.48
2022-08-03T12:36:32.240Z,1.52
2022-08-03T12:39:04.405Z,1.58
2022-08-03T12:41:35.571Z,1.70
2022-08-03T12:46:32.438Z,1.52
2022-08-03T12:49:06.730Z,1.90
2022-08-03T12:51:35.935Z,1.83
2022-08-03T12:54:03.610Z,1.67
2022-08-03T12:56:30.674Z,1.40
2022-08-03T12:58:57.574Z,1.65
2022-08-03T13:01:26.072Z,1.63
2022-08-03T13:03:53.935Z,2.45
2022-08-03T13:06:25.534Z,1.60
2022-08-03T13:09:05.528Z,1.80
2022-08-03T13:11:55.531Z,1.70
2022-08-03T13:14:20.481Z,1.20
2022-08-03T13:16:49.496Z,1.42
2022-08-03T13:19:16.650Z,1.70
2022-08-03T13:22:01.367Z,1.50
2022-08-03T13:24:33.325Z,1.52
2022-08-03T13:27:00.910Z,1.65
2022-08-03T13:29:48.029Z,1.60
2022-08-03T13:32:15.084Z,1.85
2022-08-03T13:34:42.126Z,1.60
2022-08-03T13:37:10.254Z,1.83
2022-08-03T13:39:57.682Z,1.92
2022-08-03T13:42:24.824Z,1.83
2022-08-03T13:44:51.781Z,2.20
2022-08-03T13:47:20.478Z,1.50
2022-08-03T13:49:59.864Z,1.80
2022-08-03T13:55:00.392Z,1.80
2022-08-03T13:58:04.432Z,1.52
2022-08-03T14:00:26.306Z,1.58
2022-08-03T14:05:39.670Z,1.70
2022-08-03T14:08:07.069Z,1.70
2022-08-03T14:10:38.263Z,1.55
2022-08-03T14:15:32.119Z,1.55
2022-08-03T14:18:04.342Z,1.45
2022-08-03T14:20:38.925Z,1.60
2022-08-03T14:23:15.880Z,1.60
2022-08-03T14:25:50.457Z,1.88
2022-08-03T14:28:20.903Z,1.50
2022-08-03T14:30:48.680Z,1.40
2022-08-03T14:33:16.014Z,1.50
2022-08-03T14:35:43.333Z,1.52
2022-08-03T14:38:10.246Z,1.40
2022-08-03T14:40:37.166Z,1.30
2022-08-03T14:43:04.337Z,1.40
2022-08-03T14:45:31.321Z,1.20
2022-08-03T14:50:31.856Z,1.40
2022-08-03T14:50:51.028Z,1.60
2022-08-03T14:53:19.180Z,1.75
2022-08-03T14:55:50.748Z,1.50
2022-08-03T14:58:22.637Z,1.60
2022-08-03T15:00:50.420Z,1.63
2022-08-03T15:03:20.525Z,1.70
2022-08-03T15:05:47.726Z,1.47
2022-08-03T15:08:14.682Z,1.48
2022-08-03T15:10:45.229Z,1.30
2022-08-03T15:13:15.719Z,1.50
2022-08-03T15:15:42.825Z,1.60
2022-08-03T15:18:10.016Z,1.80
2022-08-03T15:20:44.491Z,1.58
2022-08-03T15:23:13.021Z,1.75
2022-08-03T15:26:04.174Z,1.70
2022-08-03T15:28:27.092Z,1.65
2022-08-03T15:30:54.140Z,1.70
2022-08-03T15:33:21.248Z,1.75
2022-08-03T15:35:48.266Z,1.80
2022-08-03T15:38:15.194Z,1.30
2022-08-03T15:40:42.294Z,1.58
2022-08-03T15:43:09.440Z,1.50
2022-08-03T15:45:36.953Z,1.80
2022-08-03T15:48:05.764Z,1.80
2022-08-03T15:50:32.895Z,1.75
2022-08-03T15:53:00.147Z,1.50
2022-08-03T15:55:27.359Z,1.80
2022-08-03T15:59:04.358Z,1.70
2022-08-03T16:00:41.959Z,1.95
2022-08-03T16:03:09.205Z,1.88
2022-08-03T16:05:36.230Z,1.70
2022-08-03T16:08:05.124Z,1.58
2022-08-03T16:10:34.061Z,1.73
2022-08-03T16:13:01.140Z,1.60
2022-08-03T16:15:28.295Z,1.60
2022-08-03T16:17:55.378Z,1.60
2022-08-03T16:20:29.703Z,1.50
2022-08-03T16:23:01.525Z,1.73
2022-08-03T16:25:35.416Z,1.88
2022-08-03T16:28:07.811Z,1.50
2022-08-03T16:30:40.092Z,1.50
2022-08-03T16:33:07.124Z,1.40
2022-08-03T16:35:34.273Z,1.40
2022-08-03T16:38:01.174Z,1.50
2022-08-03T16:40:28.494Z,1.50
2022-08-03T16:42:55.738Z,1.48
2022-08-03T16:45:22.694Z,1.70
2022-08-03T16:48:01.467Z,1.50
2022-08-03T16:50:33.028Z,1.67
2022-08-03T16:52:59.954Z,2.38
2022-08-03T16:55:48.855Z,1.83
2022-08-03T16:58:15.187Z,1.75
2022-08-03T17:00:44.195Z,1.50
2022-08-03T17:03:20.440Z,1.83
2022-08-03T17:05:49.822Z,1.40
2022-08-03T17:08:26.079Z,1.58
2022-08-03T17:10:54.627Z,1.70
2022-08-03T17:13:22.745Z,1.60
2022-08-03T17:16:01.591Z,1.70
2022-08-03T17:18:32.951Z,1.60
2022-08-03T17:20:59.879Z,1.70
2022-08-03T17:23:47.912Z,1.83
2022-08-03T17:26:21.627Z,2.05
2022-08-03T17:28:58.088Z,1.95
2022-08-03T17:31:32.028Z,1.80
2022-08-03T17:34:00.797Z,1.95
2022-08-03T17:36:47.523Z,2.30
2022-08-03T17:39:16.644Z,2.30
2022-08-03T17:41:49.001Z,1.90
2022-08-03T17:44:33.184Z,2.10
2022-08-03T17:47:06.525Z,2.10
2022-08-03T17:49:40.128Z,2.30
2022-08-03T17:52:21.975Z,2.00
2022-08-03T17:55:55.940Z,2.45
2022-08-03T17:58:21.041Z,2.03
2022-08-03T18:02:00.825Z,2.22
2022-08-03T18:03:58.326Z,2.40
2022-08-03T18:06:28.970Z,2.08
2022-08-03T18:08:56.528Z,2.40
2022-08-03T18:11:24.239Z,2.17
2022-08-03T18:14:33.544Z,2.30
2022-08-03T18:17:06.254Z,1.90
2022-08-03T18:20:02.373Z,2.35
2022-08-03T18:22:28.048Z,2.60
2022-08-03T18:24:57.712Z,2.35
2022-08-03T18:27:25.215Z,2.50
2022-08-03T18:30:11.891Z,2.22
2022-08-03T18:32:38.964Z,2.25
2022-08-03T18:35:06.453Z,2.30
2022-08-03T18:37:52.141Z,2.60
2022-08-03T18:40:20.678Z,2.30
2022-08-03T18:42:51.051Z,2.47
2022-08-03T18:45:55.634Z,3.10
2022-08-03T18:48:20.128Z,2.85
2022-08-03T18:51:02.247Z,2.30
2022-08-03T18:54:02.588Z,2.58
2022-08-03T18:56:42.551Z,2.40
2022-08-03T18:59:16.611Z,2.25
2022-08-03T19:02:03.829Z,2.40
2022-08-03T19:04:49.187Z,2.50
2022-08-03T19:07:26.897Z,2.75
2022-08-03T19:09:56.306Z,3.00
2022-08-03T19:12:31.155Z,2.47
2022-08-03T19:15:12.554Z,2.30
2022-08-03T19:17:53.406Z,2.72
2022-08-03T19:20:28.261Z,2.10
2022-08-03T19:22:56.123Z,2.30
2022-08-03T19:25:35.227Z,2.30
2022-08-03T19:28:10.698Z,2.28
2022-08-03T19:30:46.193Z,2.50
2022-08-03T19:33:14.394Z,2.40
2022-08-03T19:35:51.634Z,2.53
2022-08-03T19:38:27.623Z,2.25
2022-08-03T19:41:02.372Z,2.55
2022-08-03T19:43:49.359Z,2.53
2022-08-03T19:46:22.422Z,2.20
2022-08-03T19:49:14.489Z,2.15
2022-08-03T19:52:01.483Z,2.58
2022-08-03T19:54:32.297Z,2.88
2022-08-03T19:56:59.324Z,2.45
2022-08-03T19:59:26.709Z,2.63
2022-08-03T20:01:53.675Z,2.45
2022-08-03T20:04:21.789Z,3.10
2022-08-03T20:06:49.658Z,2.58
2022-08-03T20:09:16.891Z,2.70
2022-08-03T20:11:45.182Z,2.70
2022-08-03T20:14:20.572Z,3.30
2022-08-03T20:16:59.370Z,2.75
2022-08-03T20:22:14.489Z,2.53
2022-08-03T20:24:41.572Z,2.80
2022-08-03T20:27:11.806Z,2.88
2022-08-03T20:30:05.469Z,2.80
2022-08-03T20:32:28.484Z,2.80
2022-08-03T20:34:55.476Z,2.83
2022-08-03T20:37:22.783Z,2.50
2022-08-03T20:39:49.986Z,2.60
2022-08-03T20:42:21.253Z,3.00
2022-08-03T20:45:04.505Z,2.72
2022-08-03T20:47:35.680Z,2.75
2022-08-03T20:50:03.877Z,2.70
2022-08-03T20:52:32.200Z,2.78
2022-08-03T20:54:59.459Z,2.78
2022-08-03T20:57:33.139Z,2.78
2022-08-03T21:00:04.695Z,2.45
2022-08-03T21:02:32.107Z,2.58
2022-08-03T21:08:06.463Z,2.50
2022-08-03T21:10:35.796Z,2.55
2022-08-03T21:13:07.969Z,2.33
2022-08-03T21:13:11.101Z,2.47
2022-08-03T21:13:26.009Z,2.50
2022-08-03T21:16:06.861Z,2.30
2022-08-03T21:18:50.546Z,2.53
2022-08-03T21:21:19.204Z,2.50
2022-08-03T21:23:54.325Z,2.25
2022-08-03T21:26:22.969Z,2.47
2022-08-03T21:28:51.833Z,2.53
2022-08-03T21:31:24.356Z,2.53
2022-08-03T21:33:57.368Z,2.60
2022-08-03T21:36:29.608Z,2.85
2022-08-03T21:38:57.414Z,2.53
2022-08-03T21:41:28.949Z,2.60
2022-08-03T21:43:55.876Z,2.90
2022-08-03T21:46:23.036Z,2.42
2022-08-03T21:48:55.866Z,2.50
2022-08-03T21:51:25.023Z,2.45
2022-08-03T21:54:03.980Z,2.35
2022-08-03T21:56:43.217Z,2.70
2022-08-03T21:59:18.269Z,2.55
2022-08-03T22:01:45.994Z,2.55
2022-08-03T22:04:53.576Z,2.75
2022-08-03T22:07:05.225Z,2.70
2022-08-03T22:09:34.272Z,2.55
2022-08-03T22:12:01.174Z,2.60
2022-08-03T22:14:28.102Z,2.60
2022-08-03T22:16:55.376Z,2.60
2022-08-03T22:19:22.538Z,2.50
2022-08-03T22:21:49.700Z,2.70
2022-08-03T22:24:19.473Z,2.70
2022-08-03T22:27:20.474Z,2.60
2022-08-03T22:29:47.601Z,2.78
2022-08-03T22:32:14.740Z,2.53
2022-08-03T22:34:42.250Z,2.40
2022-08-03T22:37:09.346Z,2.60
2022-08-03T22:39:37.347Z,2.85
2022-08-03T22:42:05.130Z,2.50
2022-08-03T22:44:32.139Z,2.58
2022-08-03T22:46:59.039Z,2.60
2022-08-03T22:49:27.554Z,2.70
2022-08-03T22:51:54.824Z,2.60
2022-08-03T22:54:21.720Z,2.80
2022-08-03T22:56:49.320Z,2.38
2022-08-03T22:59:40.907Z,2.75
2022-08-03T23:02:20.448Z,2.50
2022-08-03T23:04:51.331Z,2.67
2022-08-03T23:07:49.362Z,2.58
2022-08-03T23:10:16.633Z,2.80
2022-08-03T23:12:44.042Z,3.17
2022-08-03T23:15:12.817Z,2.63
2022-08-03T23:17:57.401Z,2.42
2022-08-03T23:20:26.995Z,2.20
2022-08-03T23:22:57.645Z,2.78
2022-08-03T23:25:25.320Z,2.40
2022-08-03T23:28:05.174Z,2.10
2022-08-03T23:30:34.560Z,2.67
2022-08-03T23:33:01.606Z,2.10
2022-08-03T23:36:29.738Z,2.47
2022-08-03T23:38:37.047Z,2.38
2022-08-03T23:41:04.834Z,2.33
2022-08-03T23:43:51.138Z,2.28
2022-08-03T23:46:19.849Z,2.35
2022-08-03T23:48:46.783Z,2.20
2022-08-03T23:51:38.315Z,2.78
2022-08-03T23:54:43.099Z,2.45
2022-08-03T23:57:28.944Z,2.10
